sensor_id;sensor_type;location;lat;lon;timestamp;pressure;altitude;pressure_sealevel;temperature;humidity
61506;BME280;47366;51.916;4.574;2023-02-11T00:00:21;103571.25;;;5.94;90.96
61506;BME280;47366;51.916;4.574;2023-02-11T00:02:46;103565.88;;;5.94;91.17
61506;BME280;47366;51.916;4.574;2023-02-11T00:05:12;103559.56;;;5.93;91.46
61506;BME280;47366;51.916;4.574;2023-02-11T00:07:37;103562.28;;;5.95;91.12
61506;BME280;47366;51.916;4.574;2023-02-11T00:10:04;103562.25;;;5.93;91.15
61506;BME280;47366;51.916;4.574;2023-02-11T00:12:33;103559.56;;;5.93;91.49
61506;BME280;47366;51.916;4.574;2023-02-11T00:14:58;103553.28;;;5.93;91.25
61506;BME280;47366;51.916;4.574;2023-02-11T00:17:23;103561.34;;;5.93;91.09
61506;BME280;47366;51.916;4.574;2023-02-11T00:19:50;103552.38;;;5.89;91.22
61506;BME280;47366;51.916;4.574;2023-02-11T00:22:16;103555.97;;;5.91;91.20
61506;BME280;47366;51.916;4.574;2023-02-11T00:24:41;103552.38;;;5.92;91.36
61506;BME280;47366;51.916;4.574;2023-02-11T00:27:06;103554.19;;;5.93;91.14
61506;BME280;47366;51.916;4.574;2023-02-11T00:29:32;103549.69;;;5.88;92.13
61506;BME280;47366;51.916;4.574;2023-02-11T00:31:58;103552.38;;;5.89;91.28
61506;BME280;47366;51.916;4.574;2023-02-11T00:34:32;103555.13;;;5.94;91.14
61506;BME280;47366;51.916;4.574;2023-02-11T00:36:57;103555.13;;;5.94;91.05
61506;BME280;47366;51.916;4.574;2023-02-11T00:39:23;103551.50;;;5.93;91.47
61506;BME280;47366;51.916;4.574;2023-02-11T00:41:48;103553.31;;;5.94;91.56
61506;BME280;47366;51.916;4.574;2023-02-11T00:44:13;103540.75;;;5.93;91.25
61506;BME280;47366;51.916;4.574;2023-02-11T00:46:39;103537.19;;;5.96;90.92
61506;BME280;47366;51.916;4.574;2023-02-11T00:49:04;103525.47;;;5.92;91.25
61506;BME280;47366;51.916;4.574;2023-02-11T00:51:29;103516.50;;;5.92;90.87
61506;BME280;47366;51.916;4.574;2023-02-11T00:53:55;103524.59;;;5.93;91.47
61506;BME280;47366;51.916;4.574;2023-02-11T00:56:20;103519.22;;;5.92;91.39
61506;BME280;47366;51.916;4.574;2023-02-11T00:58:46;103527.31;;;5.95;91.65
61506;BME280;47366;51.916;4.574;2023-02-11T01:01:12;103531.78;;;5.91;92.05
61506;BME280;47366;51.916;4.574;2023-02-11T01:03:38;103545.19;;;5.93;91.61
61506;BME280;47366;51.916;4.574;2023-02-11T01:06:04;103550.63;;;5.94;91.79
61506;BME280;47366;51.916;4.574;2023-02-11T01:08:30;103532.66;;;5.93;91.36
61506;BME280;47366;51.916;4.574;2023-02-11T01:10:57;103529.09;;;5.94;91.28
61506;BME280;47366;51.916;4.574;2023-02-11T01:13:24;103529.97;;;5.93;91.80
61506;BME280;47366;51.916;4.574;2023-02-11T01:15:49;103532.66;;;5.93;91.78
61506;BME280;47366;51.916;4.574;2023-02-11T01:18:15;103546.13;;;5.93;92.13
61506;BME280;47366;51.916;4.574;2023-02-11T01:20:40;103546.13;;;5.93;91.66
61506;BME280;47366;51.916;4.574;2023-02-11T01:23:06;103541.66;;;5.95;91.42
61506;BME280;47366;51.916;4.574;2023-02-11T01:25:31;103538.97;;;5.95;91.57
61506;BME280;47366;51.916;4.574;2023-02-11T01:27:57;103537.19;;;5.94;91.76
61506;BME280;47366;51.916;4.574;2023-02-11T01:30:22;103524.63;;;5.97;91.90
61506;BME280;47366;51.916;4.574;2023-02-11T01:32:47;103517.44;;;5.95;91.76
61506;BME280;47366;51.916;4.574;2023-02-11T01:35:13;103512.97;;;5.96;91.93
61506;BME280;47366;51.916;4.574;2023-02-11T01:37:38;103517.44;;;5.95;91.86
61506;BME280;47366;51.916;4.574;2023-02-11T01:40:05;103512.97;;;5.96;91.47
61506;BME280;47366;51.916;4.574;2023-02-11T01:42:32;103520.16;;;5.94;92.13
61506;BME280;47366;51.916;4.574;2023-02-11T01:44:59;103522.78;;;5.91;92.28
61506;BME280;47366;51.916;4.574;2023-02-11T01:47:25;103528.16;;;5.91;92.33
61506;BME280;47366;51.916;4.574;2023-02-11T01:49:55;103529.06;;;5.88;92.02
61506;BME280;47366;51.916;4.574;2023-02-11T01:52:34;103514.69;;;5.86;92.54
61506;BME280;47366;51.916;4.574;2023-02-11T01:55:03;103513.81;;;5.83;92.63
61506;BME280;47366;51.916;4.574;2023-02-11T01:57:51;103507.50;;;5.79;92.42
61506;BME280;47366;51.916;4.574;2023-02-11T02:02:55;103514.69;;;5.74;92.77
61506;BME280;47366;51.916;4.574;2023-02-11T02:10:42;103518.25;;;5.64;92.84
61506;BME280;47366;51.916;4.574;2023-02-11T02:13:08;103527.19;;;5.60;92.87
61506;BME280;47366;51.916;4.574;2023-02-11T02:15:36;103521.84;;;5.57;93.11
61506;BME280;47366;51.916;4.574;2023-02-11T02:29:35;103507.44;;;5.42;93.09
61506;BME280;47366;51.916;4.574;2023-02-11T02:37:47;103517.31;;;5.34;94.05
61506;BME280;47366;51.916;4.574;2023-02-11T02:40:20;103528.91;;;5.36;93.99
61506;BME280;47366;51.916;4.574;2023-02-11T02:42:48;103539.66;;;5.33;93.23
61506;BME280;47366;51.916;4.574;2023-02-11T02:45:14;103536.09;;;5.32;93.27
61506;BME280;47366;51.916;4.574;2023-02-11T02:47:39;103538.75;;;5.31;93.43
61506;BME280;47366;51.916;4.574;2023-02-11T02:50:07;103539.66;;;5.27;93.61
61506;BME280;47366;51.916;4.574;2023-02-11T03:01:00;103529.78;;;5.23;93.97
61506;BME280;47366;51.916;4.574;2023-02-11T03:06:13;103515.44;;;5.18;93.68
61506;BME280;47366;51.916;4.574;2023-02-11T03:08:46;103505.56;;;5.10;93.88
61506;BME280;47366;51.916;4.574;2023-02-11T03:11:14;103516.31;;;5.10;94.42
61506;BME280;47366;51.916;4.574;2023-02-11T03:13:41;103514.50;;;5.06;94.02
61506;BME280;47366;51.916;4.574;2023-02-11T03:16:17;103510.03;;;5.05;94.18
61506;BME280;47366;51.916;4.574;2023-02-11T03:18:48;103507.31;;;5.04;94.48
61506;BME280;47366;51.916;4.574;2023-02-11T03:21:15;103512.72;;;5.05;94.12
61506;BME280;47366;51.916;4.574;2023-02-11T03:23:53;103518.03;;;5.02;95.00
61506;BME280;47366;51.916;4.574;2023-02-11T03:29:06;103515.38;;;5.01;94.51
61506;BME280;47366;51.916;4.574;2023-02-11T03:31:40;103510.88;;;4.98;94.52
61506;BME280;47366;51.916;4.574;2023-02-11T03:34:29;103514.47;;;4.99;94.53
61506;BME280;47366;51.916;4.574;2023-02-11T03:37:31;103508.16;;;4.95;94.81
61506;BME280;47366;51.916;4.574;2023-02-11T03:40:04;103505.47;;;4.92;94.40
61506;BME280;47366;51.916;4.574;2023-02-11T03:42:39;103502.75;;;4.90;94.28
61506;BME280;47366;51.916;4.574;2023-02-11T03:45:11;103509.06;;;4.91;94.72
61506;BME280;47366;51.916;4.574;2023-02-11T03:47:42;103499.19;;;4.90;94.47
61506;BME280;47366;51.916;4.574;2023-02-11T03:50:11;103504.56;;;4.92;94.48
61506;BME280;47366;51.916;4.574;2023-02-11T03:52:39;103490.22;;;4.85;94.68
61506;BME280;47366;51.916;4.574;2023-02-11T03:55:16;103486.63;;;4.84;94.42
61506;BME280;47366;51.916;4.574;2023-02-11T03:57:43;103496.50;;;4.84;94.67
61506;BME280;47366;51.916;4.574;2023-02-11T04:00:11;103496.47;;;4.85;94.83
61506;BME280;47366;51.916;4.574;2023-02-11T04:02:36;103493.78;;;4.85;94.96
61506;BME280;47366;51.916;4.574;2023-02-11T04:05:04;103494.69;;;4.86;95.05
61506;BME280;47366;51.916;4.574;2023-02-11T04:07:31;103486.63;;;4.84;94.96
61506;BME280;47366;51.916;4.574;2023-02-11T04:09:56;103496.50;;;4.84;95.62
61506;BME280;47366;51.916;4.574;2023-02-11T04:12:22;103494.69;;;4.86;95.83
61506;BME280;47366;51.916;4.574;2023-02-11T04:14:47;103497.41;;;4.89;95.25
61506;BME280;47366;51.916;4.574;2023-02-11T04:17:13;103496.50;;;4.84;95.75
61506;BME280;47366;51.916;4.574;2023-02-11T04:19:38;103494.69;;;4.84;95.50
61506;BME280;47366;51.916;4.574;2023-02-11T04:22:05;103502.75;;;4.86;95.08
61506;BME280;47366;51.916;4.574;2023-02-11T04:24:30;103504.53;;;4.84;96.15
61506;BME280;47366;51.916;4.574;2023-02-11T04:26:56;103506.31;;;4.82;95.76
61506;BME280;47366;51.916;4.574;2023-02-11T04:29:21;103500.03;;;4.81;95.86
61506;BME280;47366;51.916;4.574;2023-02-11T04:31:47;103506.34;;;4.86;96.01
61506;BME280;47366;51.916;4.574;2023-02-11T04:34:12;103501.88;;;4.84;95.59
61506;BME280;47366;51.916;4.574;2023-02-11T04:36:38;103500.03;;;4.83;95.95
61506;BME280;47366;51.916;4.574;2023-02-11T04:39:04;103498.25;;;4.82;95.58
61506;BME280;47366;51.916;4.574;2023-02-11T04:41:29;103498.25;;;4.80;95.35
61506;BME280;47366;51.916;4.574;2023-02-11T04:43:54;103495.59;;;4.82;95.60
61506;BME280;47366;51.916;4.574;2023-02-11T04:46:20;103497.38;;;4.83;96.21
61506;BME280;47366;51.916;4.574;2023-02-11T04:48:45;103496.50;;;4.84;95.96
61506;BME280;47366;51.916;4.574;2023-02-11T04:51:11;103497.38;;;4.84;96.00
61506;BME280;47366;51.916;4.574;2023-02-11T04:53:36;103492.91;;;4.85;95.68
61506;BME280;47366;51.916;4.574;2023-02-11T04:56:01;103500.03;;;4.83;96.13
61506;BME280;47366;51.916;4.574;2023-02-11T04:58:27;103495.59;;;4.82;95.66
61506;BME280;47366;51.916;4.574;2023-02-11T05:00:52;103492.91;;;4.85;95.97
61506;BME280;47366;51.916;4.574;2023-02-11T05:03:17;103489.28;;;4.81;95.98
61506;BME280;47366;51.916;4.574;2023-02-11T05:05:43;103478.56;;;4.80;96.00
61506;BME280;47366;51.916;4.574;2023-02-11T05:08:09;103484.81;;;4.79;96.08
61506;BME280;47366;51.916;4.574;2023-02-11T05:10:35;103485.69;;;4.78;96.16
61506;BME280;47366;51.916;4.574;2023-02-11T05:13:00;103483.91;;;4.77;95.96
61506;BME280;47366;51.916;4.574;2023-02-11T05:15:26;103489.28;;;4.77;96.79
61506;BME280;47366;51.916;4.574;2023-02-11T05:17:52;103489.28;;;4.77;96.14
61506;BME280;47366;51.916;4.574;2023-02-11T05:20:17;103500.03;;;4.78;96.19
61506;BME280;47366;51.916;4.574;2023-02-11T05:22:43;103492.84;;;4.79;96.19
61506;BME280;47366;51.916;4.574;2023-02-11T05:25:08;103496.44;;;4.78;96.26
61506;BME280;47366;51.916;4.574;2023-02-11T05:27:34;103480.31;;;4.75;96.35
61506;BME280;47366;51.916;4.574;2023-02-11T05:29:59;103497.31;;;4.74;96.29
61506;BME280;47366;51.916;4.574;2023-02-11T05:32:24;103498.22;;;4.73;96.54
61506;BME280;47366;51.916;4.574;2023-02-11T05:34:50;103507.19;;;4.75;96.18
61506;BME280;47366;51.916;4.574;2023-02-11T05:37:15;103509.84;;;4.73;96.63
61506;BME280;47366;51.916;4.574;2023-02-11T05:39:40;103512.50;;;4.72;96.30
61506;BME280;47366;51.916;4.574;2023-02-11T05:42:06;103514.31;;;4.71;96.52
61506;BME280;47366;51.916;4.574;2023-02-11T05:44:31;103513.41;;;4.67;96.02
61506;BME280;47366;51.916;4.574;2023-02-11T05:46:57;103501.72;;;4.64;95.30
61506;BME280;47366;51.916;4.574;2023-02-11T05:49:22;103498.13;;;4.62;96.40
61506;BME280;47366;51.916;4.574;2023-02-11T05:51:47;103495.44;;;4.62;96.26
61506;BME280;47366;51.916;4.574;2023-02-11T05:54:13;103507.13;;;4.62;96.20
61506;BME280;47366;51.916;4.574;2023-02-11T05:56:38;103501.75;;;4.62;96.25
61506;BME280;47366;51.916;4.574;2023-02-11T05:59:04;103506.19;;;4.62;96.04
61506;BME280;47366;51.916;4.574;2023-02-11T06:01:29;103502.59;;;4.60;96.60
61506;BME280;47366;51.916;4.574;2023-02-11T06:03:54;103503.50;;;4.62;96.53
61506;BME280;47366;51.916;4.574;2023-02-11T06:06:20;103506.19;;;4.60;96.16
61506;BME280;47366;51.916;4.574;2023-02-11T06:08:45;103508.91;;;4.63;96.25
61506;BME280;47366;51.916;4.574;2023-02-11T06:11:13;103503.50;;;4.60;96.22
61506;BME280;47366;51.916;4.574;2023-02-11T06:13:39;103506.22;;;4.63;96.14
61506;BME280;47366;51.916;4.574;2023-02-11T06:16:04;103505.31;;;4.64;96.23
61506;BME280;47366;51.916;4.574;2023-02-11T06:18:30;103510.66;;;4.64;96.59
61506;BME280;47366;51.916;4.574;2023-02-11T06:20:57;103505.28;;;4.61;95.64
61506;BME280;47366;51.916;4.574;2023-02-11T06:23:23;103513.38;;;4.63;96.16
61506;BME280;47366;51.916;4.574;2023-02-11T06:25:48;103517.84;;;4.67;97.08
61506;BME280;47366;51.916;4.574;2023-02-11T06:28:13;103516.09;;;4.67;96.89
61506;BME280;47366;51.916;4.574;2023-02-11T06:30:39;103514.28;;;4.66;96.92
61506;BME280;47366;51.916;4.574;2023-02-11T06:33:04;103515.16;;;4.67;96.73
61506;BME280;47366;51.916;4.574;2023-02-11T06:35:29;103517.88;;;4.72;96.97
61506;BME280;47366;51.916;4.574;2023-02-11T06:37:55;103517.00;;;4.74;97.03
61506;BME280;47366;51.916;4.574;2023-02-11T06:40:20;103524.16;;;4.74;96.89
61506;BME280;47366;51.916;4.574;2023-02-11T06:42:46;103508.94;;;4.73;96.73
61506;BME280;47366;51.916;4.574;2023-02-11T06:45:11;103522.38;;;4.74;96.81
61506;BME280;47366;51.916;4.574;2023-02-11T06:47:38;103532.25;;;4.77;97.17
61506;BME280;47366;51.916;4.574;2023-02-11T06:50:05;103532.25;;;4.77;97.02
61506;BME280;47366;51.916;4.574;2023-02-11T06:52:31;103519.69;;;4.74;97.38
61506;BME280;47366;51.916;4.574;2023-02-11T06:54:57;103522.41;;;4.77;97.17
61506;BME280;47366;51.916;4.574;2023-02-11T06:57:22;103517.00;;;4.76;97.43
61506;BME280;47366;51.916;4.574;2023-02-11T06:59:47;103521.50;;;4.75;97.45
61506;BME280;47366;51.916;4.574;2023-02-11T07:02:13;103524.16;;;4.74;96.99
61506;BME280;47366;51.916;4.574;2023-02-11T07:04:38;103527.72;;;4.71;97.28
61506;BME280;47366;51.916;4.574;2023-02-11T07:07:03;103536.66;;;4.72;96.68
61506;BME280;47366;51.916;4.574;2023-02-11T07:09:29;103546.53;;;4.70;97.15
61506;BME280;47366;51.916;4.574;2023-02-11T07:11:54;103534.88;;;4.71;96.98
61506;BME280;47366;51.916;4.574;2023-02-11T07:14:19;103541.16;;;4.70;97.07
61506;BME280;47366;51.916;4.574;2023-02-11T07:16:45;103533.97;;;4.68;97.08
61506;BME280;47366;51.916;4.574;2023-02-11T07:19:10;103537.53;;;4.66;96.93
61506;BME280;47366;51.916;4.574;2023-02-11T07:21:35;103536.63;;;4.64;96.70
61506;BME280;47366;51.916;4.574;2023-02-11T07:24:05;103542.03;;;4.65;96.66
61506;BME280;47366;51.916;4.574;2023-02-11T07:26:30;103547.38;;;4.65;96.74
61506;BME280;47366;51.916;4.574;2023-02-11T07:28:56;103555.44;;;4.68;97.14
61506;BME280;47366;51.916;4.574;2023-02-11T07:31:24;103549.22;;;4.70;97.19
61506;BME280;47366;51.916;4.574;2023-02-11T07:33:51;103548.28;;;4.69;97.07
61506;BME280;47366;51.916;4.574;2023-02-11T07:36:17;103548.28;;;4.69;97.17
61506;BME280;47366;51.916;4.574;2023-02-11T07:38:43;103541.13;;;4.66;96.70
61506;BME280;47366;51.916;4.574;2023-02-11T07:41:11;103550.97;;;4.67;97.15
61506;BME280;47366;51.916;4.574;2023-02-11T07:43:37;103568.88;;;4.68;96.65
61506;BME280;47366;51.916;4.574;2023-02-11T07:46:09;103565.31;;;4.71;96.82
61506;BME280;47366;51.916;4.574;2023-02-11T07:48:36;103568.88;;;4.72;96.65
61506;BME280;47366;51.916;4.574;2023-02-11T07:51:16;103568.88;;;4.72;96.53
61506;BME280;47366;51.916;4.574;2023-02-11T07:53:42;103570.72;;;4.76;96.79
61506;BME280;47366;51.916;4.574;2023-02-11T07:56:08;103568.06;;;4.77;97.07
61506;BME280;47366;51.916;4.574;2023-02-11T07:58:34;103573.41;;;4.79;96.56
61506;BME280;47366;51.916;4.574;2023-02-11T08:01:04;103568.03;;;4.79;96.39
61506;BME280;47366;51.916;4.574;2023-02-11T08:03:30;103567.19;;;4.83;97.13
61506;BME280;47366;51.916;4.574;2023-02-11T08:05:55;103570.81;;;4.86;97.46
61506;BME280;47366;51.916;4.574;2023-02-11T08:08:21;103584.25;;;4.93;97.28
61506;BME280;47366;51.916;4.574;2023-02-11T08:10:46;103582.50;;;4.99;97.24
61506;BME280;47366;51.916;4.574;2023-02-11T08:13:11;103586.09;;;5.04;97.11
61506;BME280;47366;51.916;4.574;2023-02-11T08:15:37;103580.75;;;5.07;97.38
61506;BME280;47366;51.916;4.574;2023-02-11T08:18:02;103587.94;;;5.15;97.37
61506;BME280;47366;51.916;4.574;2023-02-11T08:20:27;103586.19;;;5.18;97.49
61506;BME280;47366;51.916;4.574;2023-02-11T08:22:53;103586.19;;;5.18;97.68
61506;BME280;47366;51.916;4.574;2023-02-11T08:25:18;103588.91;;;5.20;97.87
61506;BME280;47366;51.916;4.574;2023-02-11T08:27:43;103595.19;;;5.25;97.14
61506;BME280;47366;51.916;4.574;2023-02-11T08:30:09;103599.69;;;5.27;97.36
61506;BME280;47366;51.916;4.574;2023-02-11T08:32:35;103595.19;;;5.28;97.87
61506;BME280;47366;51.916;4.574;2023-02-11T08:35:00;103600.56;;;5.31;97.68
61506;BME280;47366;51.916;4.574;2023-02-11T08:37:25;103605.09;;;5.37;97.55
61506;BME280;47366;51.916;4.574;2023-02-11T08:39:51;103606.88;;;5.38;97.69
61506;BME280;47366;51.916;4.574;2023-02-11T08:42:16;103612.28;;;5.39;97.29
61506;BME280;47366;51.916;4.574;2023-02-11T08:44:42;103614.97;;;5.42;98.18
61506;BME280;47366;51.916;4.574;2023-02-11T08:47:07;103623.94;;;5.44;97.42
61506;BME280;47366;51.916;4.574;2023-02-11T08:49:32;103623.97;;;5.46;97.61
61506;BME280;47366;51.916;4.574;2023-02-11T08:51:58;103616.78;;;5.46;97.36
61506;BME280;47366;51.916;4.574;2023-02-11T08:54:28;103607.81;;;5.50;97.51
61506;BME280;47366;51.916;4.574;2023-02-11T08:56:53;103619.53;;;5.56;97.59
61506;BME280;47366;51.916;4.574;2023-02-11T08:59:19;103616.84;;;5.56;97.29
61506;BME280;47366;51.916;4.574;2023-02-11T09:01:44;103624.00;;;5.57;97.53
61506;BME280;47366;51.916;4.574;2023-02-11T09:04:11;103632.97;;;5.62;98.06
61506;BME280;47366;51.916;4.574;2023-02-11T09:06:37;103625.81;;;5.61;98.28
61506;BME280;47366;51.916;4.574;2023-02-11T09:09:02;103622.22;;;5.63;97.49
61506;BME280;47366;51.916;4.574;2023-02-11T09:11:36;103623.16;;;5.68;97.68
61506;BME280;47366;51.916;4.574;2023-02-11T09:14:03;103633.91;;;5.71;98.06
61506;BME280;47366;51.916;4.574;2023-02-11T09:16:32;103633.94;;;5.74;97.57
61506;BME280;47366;51.916;4.574;2023-02-11T09:18:59;103628.56;;;5.81;97.28
61506;BME280;47366;51.916;4.574;2023-02-11T09:21:25;103620.50;;;5.85;98.13
61506;BME280;47366;51.916;4.574;2023-02-11T09:23:50;103623.19;;;5.88;98.00
61506;BME280;47366;51.916;4.574;2023-02-11T09:26:23;103620.53;;;5.90;98.68
61506;BME280;47366;51.916;4.574;2023-02-11T09:28:49;103615.16;;;5.91;98.25
61506;BME280;47366;51.916;4.574;2023-02-11T09:31:18;103616.97;;;5.95;98.30
61506;BME280;47366;51.916;4.574;2023-02-11T09:33:45;103617.91;;;5.99;98.09
61506;BME280;47366;51.916;4.574;2023-02-11T09:36:19;103624.19;;;6.04;98.12
61506;BME280;47366;51.916;4.574;2023-02-11T09:38:47;103628.69;;;6.08;97.94
61506;BME280;47366;51.916;4.574;2023-02-11T09:44:20;103639.47;;;6.21;97.97
61506;BME280;47366;51.916;4.574;2023-02-11T09:46:52;103634.09;;;6.25;97.80
61506;BME280;47366;51.916;4.574;2023-02-11T09:49:23;103626.91;;;6.30;97.82
61506;BME280;47366;51.916;4.574;2023-02-11T09:52:02;103626.91;;;6.33;97.82
61506;BME280;47366;51.916;4.574;2023-02-11T09:54:35;103627.81;;;6.35;98.08
61506;BME280;47366;51.916;4.574;2023-02-11T09:57:01;103633.19;;;6.43;98.16
61506;BME280;47366;51.916;4.574;2023-02-11T09:59:27;103632.31;;;6.49;98.15
61506;BME280;47366;51.916;4.574;2023-02-11T10:09:51;103643.09;;;6.70;97.80
61506;BME280;47366;51.916;4.574;2023-02-11T10:23:24;103665.53;;;7.01;97.36
61506;BME280;47366;51.916;4.574;2023-02-11T10:25:52;103665.50;;;7.06;97.82
61506;BME280;47366;51.916;4.574;2023-02-11T10:28:21;103671.81;;;7.13;97.89
61506;BME280;47366;51.916;4.574;2023-02-11T10:33:33;103677.16;;;7.23;97.60
61506;BME280;47366;51.916;4.574;2023-02-11T10:36:03;103675.38;;;7.27;97.08
61506;BME280;47366;51.916;4.574;2023-02-11T10:38:28;103673.53;;;7.31;97.53
61506;BME280;47366;51.916;4.574;2023-02-11T10:40:53;103671.75;;;7.34;97.79
61506;BME280;47366;51.916;4.574;2023-02-11T10:43:23;103673.53;;;7.35;98.09
61506;BME280;47366;51.916;4.574;2023-02-11T10:45:51;103681.59;;;7.43;97.54
61506;BME280;47366;51.916;4.574;2023-02-11T10:51:28;103691.47;;;7.50;96.99
61506;BME280;47366;51.916;4.574;2023-02-11T10:56:25;103704.06;;;7.54;96.91
61506;BME280;47366;51.916;4.574;2023-02-11T10:59:00;103712.13;;;7.57;97.19
61506;BME280;47366;51.916;4.574;2023-02-11T11:02:00;103713.03;;;7.59;97.58
61506;BME280;47366;51.916;4.574;2023-02-11T11:07:21;103711.22;;;7.68;97.11
61506;BME280;47366;51.916;4.574;2023-02-11T11:17:27;103717.41;;;7.91;97.02
61506;BME280;47366;51.916;4.574;2023-02-11T11:20:25;103714.69;;;7.97;96.89
61506;BME280;47366;51.916;4.574;2023-02-11T11:23:06;103712.88;;;8.01;96.66
61506;BME280;47366;51.916;4.574;2023-02-11T11:25:34;103716.44;;;8.07;96.93
61506;BME280;47366;51.916;4.574;2023-02-11T11:28:01;103708.34;;;8.09;96.30
61506;BME280;47366;51.916;4.574;2023-02-11T11:30:33;103713.72;;;8.14;96.35
61506;BME280;47366;51.916;4.574;2023-02-11T11:33:03;103712.81;;;8.18;95.88
61506;BME280;47366;51.916;4.574;2023-02-11T11:35:30;103704.69;;;8.21;95.56
61506;BME280;47366;51.916;4.574;2023-02-11T11:38:03;103698.34;;;8.26;95.44
61506;BME280;47366;51.916;4.574;2023-02-11T11:40:31;103695.63;;;8.26;95.30
61506;BME280;47366;51.916;4.574;2023-02-11T11:43:14;103717.22;;;8.31;94.89
61506;BME280;47366;51.916;4.574;2023-02-11T11:45:57;103708.22;;;8.32;94.77
61506;BME280;47366;51.916;4.574;2023-02-11T11:48:37;103718.09;;;8.38;94.91
61506;BME280;47366;51.916;4.574;2023-02-11T11:51:07;103712.69;;;8.39;94.58
61506;BME280;47366;51.916;4.574;2023-02-11T11:53:57;103700.97;;;8.37;94.55
61506;BME280;47366;51.916;4.574;2023-02-11T11:56:29;103707.28;;;8.38;94.26
61506;BME280;47366;51.916;4.574;2023-02-11T11:58:59;103702.81;;;8.40;94.11
61506;BME280;47366;51.916;4.574;2023-02-11T12:01:36;103709.09;;;8.42;94.04
61506;BME280;47366;51.916;4.574;2023-02-11T12:04:23;103711.78;;;8.42;93.88
61506;BME280;47366;51.916;4.574;2023-02-11T12:07:19;103718.09;;;8.39;94.08
61506;BME280;47366;51.916;4.574;2023-02-11T12:12:52;103733.41;;;8.40;93.90
61506;BME280;47366;51.916;4.574;2023-02-11T12:15:37;103717.19;;;8.34;93.49
61506;BME280;47366;51.916;4.574;2023-02-11T12:20:55;103727.09;;;8.34;93.80
61506;BME280;47366;51.916;4.574;2023-02-11T12:26:15;103723.47;;;8.38;93.66
61506;BME280;47366;51.916;4.574;2023-02-11T12:37:17;103712.66;;;8.45;93.49
61506;BME280;47366;51.916;4.574;2023-02-11T12:42:19;103723.44;;;8.48;93.50
61506;BME280;47366;51.916;4.574;2023-02-11T12:47:46;103712.59;;;8.55;93.39
61506;BME280;47366;51.916;4.574;2023-02-11T12:55:29;103717.06;;;8.62;93.10
61506;BME280;47366;51.916;4.574;2023-02-11T12:58:00;103708.06;;;8.60;93.05
61506;BME280;47366;51.916;4.574;2023-02-11T13:00:41;103713.44;;;8.64;92.43
61506;BME280;47366;51.916;4.574;2023-02-11T13:05:53;103707.97;;;8.75;92.50
61506;BME280;47366;51.916;4.574;2023-02-11T13:08:35;103710.63;;;8.80;92.42
61506;BME280;47366;51.916;4.574;2023-02-11T13:11:06;103704.28;;;8.79;92.55
61506;BME280;47366;51.916;4.574;2023-02-11T13:16:41;103703.41;;;8.79;92.13
61506;BME280;47366;51.916;4.574;2023-02-11T13:24:21;103697.03;;;8.87;92.16
61506;BME280;47366;51.916;4.574;2023-02-11T13:29:55;103676.31;;;8.89;91.66
61506;BME280;47366;51.916;4.574;2023-02-11T13:38:21;103681.56;;;9.06;90.95
61506;BME280;47366;51.916;4.574;2023-02-11T13:41:01;103692.34;;;9.08;90.78
61506;BME280;47366;51.916;4.574;2023-02-11T13:43:27;103689.66;;;9.06;90.82
61506;BME280;47366;51.916;4.574;2023-02-11T13:46:02;103697.75;;;9.09;90.78
61506;BME280;47366;51.916;4.574;2023-02-11T13:48:31;103687.81;;;9.10;90.45
61506;BME280;47366;51.916;4.574;2023-02-11T13:51:02;103689.59;;;9.12;90.39
61506;BME280;47366;51.916;4.574;2023-02-11T13:53:30;103679.69;;;9.10;90.22
61506;BME280;47366;51.916;4.574;2023-02-11T13:56:11;103671.66;;;9.04;90.16
61506;BME280;47366;51.916;4.574;2023-02-11T13:58:49;103669.84;;;9.03;90.24
61506;BME280;47366;51.916;4.574;2023-02-11T14:02:00;103677.97;;;9.06;90.03
61506;BME280;47366;51.916;4.574;2023-02-11T14:29:54;103686.88;;;9.12;88.82
61506;BME280;47366;51.916;4.574;2023-02-11T14:38:02;103686.00;;;9.10;88.41
61506;BME280;47366;51.916;4.574;2023-02-11T14:41:03;103683.31;;;9.09;88.53
61506;BME280;47366;51.916;4.574;2023-02-11T14:43:37;103688.78;;;9.06;88.51
61506;BME280;47366;51.916;4.574;2023-02-11T14:46:03;103689.63;;;9.08;88.82
61506;BME280;47366;51.916;4.574;2023-02-11T14:48:35;103695.97;;;9.08;88.50
61506;BME280;47366;51.916;4.574;2023-02-11T14:53:30;103700.47;;;9.06;87.94
61506;BME280;47366;51.916;4.574;2023-02-11T14:55:56;103702.28;;;9.06;88.11
61506;BME280;47366;51.916;4.574;2023-02-11T14:58:30;103699.59;;;9.03;87.97
61506;BME280;47366;51.916;4.574;2023-02-11T15:01:03;103705.03;;;8.98;87.55
61506;BME280;47366;51.916;4.574;2023-02-11T15:03:38;103705.06;;;8.95;87.43
61506;BME280;47366;51.916;4.574;2023-02-11T15:08:46;103702.41;;;8.90;87.17
61506;BME280;47366;51.916;4.574;2023-02-11T15:11:14;103696.16;;;8.87;87.57
61506;BME280;47366;51.916;4.574;2023-02-11T15:13:41;103709.66;;;8.87;87.88
61506;BME280;47366;51.916;4.574;2023-02-11T15:16:16;103714.16;;;8.88;87.69
61506;BME280;47366;51.916;4.574;2023-02-11T15:18:47;103710.59;;;8.84;87.82
61506;BME280;47366;51.916;4.574;2023-02-11T15:21:28;103714.19;;;8.85;87.34
61506;BME280;47366;51.916;4.574;2023-02-11T15:24:19;103714.19;;;8.82;87.51
61506;BME280;47366;51.916;4.574;2023-02-11T15:27:15;103701.59;;;8.81;87.29
61506;BME280;47366;51.916;4.574;2023-02-11T15:29:46;103710.63;;;8.80;87.36
61506;BME280;47366;51.916;4.574;2023-02-11T15:34:39;103716.97;;;8.76;87.34
61506;BME280;47366;51.916;4.574;2023-02-11T15:37:05;103715.19;;;8.73;87.56
61506;BME280;47366;51.916;4.574;2023-02-11T15:39:39;103719.69;;;8.71;87.57
61506;BME280;47366;51.916;4.574;2023-02-11T15:42:21;103722.41;;;8.69;87.51
61506;BME280;47366;51.916;4.574;2023-02-11T15:44:48;103718.81;;;8.69;87.66
61506;BME280;47366;51.916;4.574;2023-02-11T15:47:18;103717.03;;;8.66;87.57
61506;BME280;47366;51.916;4.574;2023-02-11T15:49:45;103724.25;;;8.66;87.58
61506;BME280;47366;51.916;4.574;2023-02-11T15:52:13;103719.75;;;8.62;87.83
61506;BME280;47366;51.916;4.574;2023-02-11T15:54:39;103724.28;;;8.63;87.90